Time;durP1;ratioP1;P1;durP2;ratioP2;P2;SDS_P1;SDS_P2;PMS_P1;PMS_P2;Temp;Humidity;BMP_temperature;BMP_pressure;BME280_temperature;BME280_humidity;BME280_pressure;Samples;Min_cycle;Max_cycle;Signal;HPM_P1;HPM_P2
2022/06/25 00:01:25;;;;;;;18.83;17.20;;;;;;;;;;5007600;28;20221;-76
2022/06/25 00:03:51;;;;;;;17.42;15.98;;;;;;;;;;4992832;28;20357;-75
2022/06/25 00:06:23;;;;;;;17.88;16.27;;;;;;;;;;5009308;28;20255;-75
2022/06/25 00:08:50;;;;;;;16.85;15.45;;;;;;;;;;5018261;28;20229;-75
2022/06/25 00:14:06;;;;;;;19.95;18.23;;;;;;;;;;5023270;28;20271;-76
2022/06/25 00:16:34;;;;;;;20.20;18.50;;;;;;;;;;5008663;28;20243;-77
2022/06/25 00:18:59;;;;;;;20.38;18.77;;;;;;;;;;5004783;28;20584;-75
2022/06/25 00:21:25;;;;;;;20.15;18.48;;;;;;;;;;5019338;28;20220;-77
2022/06/25 00:23:53;;;;;;;20.67;18.90;;;;;;;;;;4992546;28;20242;-77
2022/06/25 00:26:18;;;;;;;20.48;18.58;;;;;;;;;;5031519;28;21010;-76
2022/06/25 00:28:46;;;;;;;20.55;18.70;;;;;;;;;;5007609;28;20270;-77
2022/06/25 00:31:16;;;;;;;19.33;17.63;;;;;;;;;;5017752;28;20750;-74
2022/06/25 00:33:42;;;;;;;18.15;16.67;;;;;;;;;;5004343;28;20716;-74
2022/06/25 00:36:12;;;;;;;18.30;16.60;;;;;;;;;;5007661;28;20220;-76
2022/06/25 00:38:37;;;;;;;19.25;17.73;;;;;;;;;;5038716;28;20311;-75
2022/06/25 00:41:06;;;;;;;18.65;17.05;;;;;;;;;;5008148;28;20964;-77
2022/06/25 00:43:31;;;;;;;18.80;17.25;;;;;;;;;;5006034;28;20750;-76
2022/06/25 00:46:01;;;;;;;18.77;17.25;;;;;;;;;;5010094;28;20228;-76
2022/06/25 00:48:29;;;;;;;18.88;17.38;;;;;;;;;;5007530;28;20224;-76
2022/06/25 00:51:00;;;;;;;19.75;17.85;;;;;;;;;;5008124;28;20250;-76
2022/06/25 00:53:33;;;;;;;19.52;18.02;;;;;;;;;;5007548;28;20220;-77
2022/06/25 00:56:01;;;;;;;18.45;16.77;;;;;;;;;;5008770;28;20219;-76
2022/06/25 00:58:32;;;;;;;18.90;17.30;;;;;;;;;;5008486;28;20318;-77
2022/06/25 01:01:00;;;;;;;19.35;17.67;;;;;;;;;;5009491;28;20229;-76
2022/06/25 01:03:31;;;;;;;20.20;18.27;;;;;;;;;;5002186;28;20232;-76
2022/06/25 01:05:58;;;;;;;19.23;17.65;;;;;;;;;;5009090;28;20307;-76
2022/06/25 01:08:26;;;;;;;18.95;17.45;;;;;;;;;;5007811;28;20239;-75
2022/06/25 01:10:54;;;;;;;20.02;18.30;;;;;;;;;;5008322;28;20689;-76
2022/06/25 01:13:22;;;;;;;18.73;17.15;;;;;;;;;;5002556;28;20222;-77
2022/06/25 01:15:52;;;;;;;19.55;17.92;;;;;;;;;;5009916;28;20243;-73
2022/06/25 01:18:19;;;;;;;20.70;19.00;;;;;;;;;;5017520;28;20225;-76
2022/06/25 01:20:44;;;;;;;21.25;19.38;;;;;;;;;;5032065;28;20638;-76
2022/06/25 01:23:15;;;;;;;21.58;19.67;;;;;;;;;;4983947;28;20220;-77
2022/06/25 01:25:41;;;;;;;22.58;20.48;;;;;;;;;;5021781;28;20263;-76
2022/06/25 01:28:07;;;;;;;22.55;20.65;;;;;;;;;;5014244;28;20224;-76
2022/06/25 01:30:37;;;;;;;20.02;18.33;;;;;;;;;;5021237;28;20227;-76
2022/06/25 01:33:06;;;;;;;20.77;18.90;;;;;;;;;;5021236;28;20223;-77
2022/06/25 01:35:32;;;;;;;19.83;18.23;;;;;;;;;;5029176;28;20224;-76
2022/06/25 01:37:59;;;;;;;21.27;19.58;;;;;;;;;;4990471;28;20217;-76
2022/06/25 01:40:31;;;;;;;19.80;18.00;;;;;;;;;;5008063;28;20549;-76
2022/06/25 01:43:00;;;;;;;19.73;18.05;;;;;;;;;;5008541;28;20211;-77
2022/06/25 01:45:27;;;;;;;18.30;16.60;;;;;;;;;;5004146;28;20216;-76
2022/06/25 01:47:56;;;;;;;18.05;16.55;;;;;;;;;;5007042;28;20224;-76
2022/06/25 01:50:24;;;;;;;18.60;17.00;;;;;;;;;;5007661;28;20224;-77
2022/06/25 01:52:50;;;;;;;18.48;16.90;;;;;;;;;;5007074;28;20247;-78
2022/06/25 01:55:22;;;;;;;20.65;18.90;;;;;;;;;;5018545;28;20621;-77
2022/06/25 01:57:53;;;;;;;20.90;19.00;;;;;;;;;;5009566;28;20256;-77
2022/06/25 02:00:25;;;;;;;20.42;18.63;;;;;;;;;;5018681;28;20262;-77
2022/06/25 02:02:58;;;;;;;18.70;17.10;;;;;;;;;;5006846;28;20230;-76
2022/06/25 02:08:36;;;;;;;16.95;15.57;;;;;;;;;;4963257;28;20232;-76
2022/06/25 02:11:06;;;;;;;17.45;15.95;;;;;;;;;;5021834;28;20723;-76
2022/06/25 02:13:31;;;;;;;17.98;16.25;;;;;;;;;;4997582;28;20228;-75
2022/06/25 02:16:02;;;;;;;19.45;17.85;;;;;;;;;;5022602;28;20224;-73
2022/06/25 02:18:28;;;;;;;18.38;16.85;;;;;;;;;;5007200;28;20230;-75
2022/06/25 02:20:53;;;;;;;16.50;15.15;;;;;;;;;;5033682;28;20244;-76
2022/06/25 02:23:22;;;;;;;17.50;16.00;;;;;;;;;;5006905;28;20224;-73
2022/06/25 02:25:51;;;;;;;16.63;15.23;;;;;;;;;;5005789;28;20290;-76
2022/06/25 02:28:18;;;;;;;18.65;17.05;;;;;;;;;;5005256;28;20271;-76
2022/06/25 02:30:44;;;;;;;18.67;17.17;;;;;;;;;;5006861;28;20636;-75
2022/06/25 02:33:15;;;;;;;17.42;15.73;;;;;;;;;;5013793;28;20239;-75
2022/06/25 02:35:46;;;;;;;18.52;16.83;;;;;;;;;;5018065;28;20224;-73
2022/06/25 02:38:16;;;;;;;24.73;22.40;;;;;;;;;;5005307;28;20244;-77
2022/06/25 02:40:47;;;;;;;37.75;24.83;;;;;;;;;;5017672;28;20733;-75
2022/06/25 02:43:17;;;;;;;36.63;24.40;;;;;;;;;;5010255;28;20254;-76
2022/06/25 02:45:49;;;;;;;35.47;24.45;;;;;;;;;;5012236;28;20284;-76
2022/06/25 02:48:16;;;;;;;25.33;22.73;;;;;;;;;;5019642;28;20777;-76
2022/06/25 02:50:42;;;;;;;29.60;23.58;;;;;;;;;;5004450;28;20338;-73
2022/06/25 02:53:13;;;;;;;30.20;24.40;;;;;;;;;;4993948;28;20220;-76
2022/06/25 03:01:16;;;;;;;25.17;22.80;;;;;;;;;;5013677;28;20231;-75
2022/06/25 03:03:44;;;;;;;27.30;23.67;;;;;;;;;;5019411;28;20299;-76
2022/06/25 03:06:12;;;;;;;24.05;21.95;;;;;;;;;;5007367;28;20219;-76
2022/06/25 03:08:40;;;;;;;24.38;22.38;;;;;;;;;;5011538;28;20224;-77
2022/06/25 03:11:10;;;;;;;23.63;21.52;;;;;;;;;;5008021;28;20250;-77
2022/06/25 03:13:38;;;;;;;35.35;21.20;;;;;;;;;;5011166;28;20223;-77
2022/06/25 03:16:04;;;;;;;28.45;21.17;;;;;;;;;;5011207;28;20247;-76
2022/06/25 03:18:32;;;;;;;22.90;20.55;;;;;;;;;;5011827;28;20238;-76
2022/06/25 03:21:25;;;;;;;30.45;20.95;;;;;;;;;;5022230;28;20227;-77
2022/06/25 03:24:02;;;;;;;28.65;21.13;;;;;;;;;;5011034;28;20270;-77
2022/06/25 03:26:30;;;;;;;23.70;21.15;;;;;;;;;;5009693;28;20227;-74
2022/06/25 03:29:02;;;;;;;27.35;21.05;;;;;;;;;;5010308;28;20771;-77
2022/06/25 03:31:32;;;;;;;32.15;21.00;;;;;;;;;;4995756;28;20273;-76
2022/06/25 03:34:01;;;;;;;53.75;21.27;;;;;;;;;;5010618;28;20231;-77
2022/06/25 03:36:38;;;;;;;23.92;20.70;;;;;;;;;;5002378;28;20231;-76
2022/06/25 03:39:04;;;;;;;39.38;21.25;;;;;;;;;;5016501;28;20242;-75
2022/06/25 03:41:35;;;;;;;21.90;19.90;;;;;;;;;;5007411;28;20236;-77
2022/06/25 03:44:32;;;;;;;25.15;20.60;;;;;;;;;;5021090;28;20228;-77
2022/06/25 03:47:09;;;;;;;55.22;21.90;;;;;;;;;;5010720;28;20364;-77
2022/06/25 03:49:40;;;;;;;41.38;22.15;;;;;;;;;;5009105;28;20247;-76
2022/06/25 03:52:10;;;;;;;23.30;20.88;;;;;;;;;;5024907;28;20674;-76
2022/06/25 03:54:39;;;;;;;23.25;21.10;;;;;;;;;;5009037;28;20228;-77
2022/06/25 03:57:08;;;;;;;22.65;20.75;;;;;;;;;;5018593;28;20269;-78
2022/06/25 03:59:52;;;;;;;24.60;22.40;;;;;;;;;;5015551;28;20331;-79
2022/06/25 04:02:22;;;;;;;28.73;22.88;;;;;;;;;;5004673;28;20748;-78
2022/06/25 04:05:26;;;;;;;30.83;22.83;;;;;;;;;;5033236;28;20259;-78
2022/06/25 04:07:55;;;;;;;26.45;23.85;;;;;;;;;;5021788;28;20254;-78
2022/06/25 04:10:20;;;;;;;25.45;23.13;;;;;;;;;;5010053;28;20323;-77
2022/06/25 04:12:51;;;;;;;24.77;22.60;;;;;;;;;;5016427;28;20228;-78
2022/06/25 04:15:16;;;;;;;23.95;21.85;;;;;;;;;;5016003;28;20224;-77
2022/06/25 04:17:44;;;;;;;24.75;22.48;;;;;;;;;;5036939;28;20213;-76
2022/06/25 04:20:10;;;;;;;23.83;21.80;;;;;;;;;;5009477;28;20698;-77
2022/06/25 04:22:39;;;;;;;22.90;21.00;;;;;;;;;;5017582;28;20212;-76
2022/06/25 04:25:05;;;;;;;23.52;21.42;;;;;;;;;;5018238;28;20312;-76
2022/06/25 04:30:15;;;;;;;24.58;22.48;;;;;;;;;;5010070;28;20695;-75
2022/06/25 04:32:45;;;;;;;25.05;22.70;;;;;;;;;;5006413;28;20223;-76
2022/06/25 04:35:24;;;;;;;25.55;23.23;;;;;;;;;;5008819;28;20211;-76
2022/06/25 04:37:54;;;;;;;26.17;23.83;;;;;;;;;;5009996;28;20267;-76
2022/06/25 04:40:20;;;;;;;25.88;23.58;;;;;;;;;;5007927;28;20610;-77
2022/06/25 04:42:49;;;;;;;26.65;24.23;;;;;;;;;;5007350;28;20238;-76
2022/06/25 04:45:20;;;;;;;27.23;24.73;;;;;;;;;;5005029;28;20213;-77
2022/06/25 04:48:08;;;;;;;28.70;25.90;;;;;;;;;;5016651;28;20227;-76
2022/06/25 04:50:53;;;;;;;29.73;26.88;;;;;;;;;;5011989;28;20227;-75
2022/06/25 04:53:20;;;;;;;26.77;24.48;;;;;;;;;;5006586;28;20659;-76
2022/06/25 04:55:46;;;;;;;26.17;23.83;;;;;;;;;;5008494;28;20223;-76
2022/06/25 04:58:11;;;;;;;26.73;24.40;;;;;;;;;;5007491;28;20265;-76
2022/06/25 05:01:08;;;;;;;25.65;23.25;;;;;;;;;;5018852;28;20568;-75
2022/06/25 05:03:36;;;;;;;24.17;22.02;;;;;;;;;;5009674;28;20216;-76
2022/06/25 05:06:10;;;;;;;24.65;22.55;;;;;;;;;;5010103;28;20318;-76
2022/06/25 05:08:39;;;;;;;23.00;21.00;;;;;;;;;;5009643;28;20232;-76
2022/06/25 05:11:07;;;;;;;20.95;19.25;;;;;;;;;;5007609;28;20588;-74
2022/06/25 05:13:35;;;;;;;20.48;18.77;;;;;;;;;;5008798;28;20741;-75
2022/06/25 05:16:05;;;;;;;20.65;18.95;;;;;;;;;;5024754;28;20771;-73
2022/06/25 05:18:35;;;;;;;20.85;19.15;;;;;;;;;;5006864;28;20232;-74
2022/06/25 05:21:01;;;;;;;20.27;18.48;;;;;;;;;;5015887;28;20239;-75
2022/06/25 05:23:27;;;;;;;21.17;19.55;;;;;;;;;;5012824;28;20723;-76
2022/06/25 05:25:55;;;;;;;19.27;17.75;;;;;;;;;;5011857;28;20366;-76
2022/06/25 05:28:23;;;;;;;22.33;20.42;;;;;;;;;;5009682;28;20224;-76
2022/06/25 05:30:48;;;;;;;22.17;20.38;;;;;;;;;;5006693;28;20224;-76
2022/06/25 05:33:14;;;;;;;22.05;20.13;;;;;;;;;;5036024;28;20286;-76
2022/06/25 05:35:42;;;;;;;22.13;20.38;;;;;;;;;;5008543;28;20216;-76
2022/06/25 05:38:09;;;;;;;22.40;20.60;;;;;;;;;;5022017;28;20637;-77
2022/06/25 05:40:37;;;;;;;22.05;20.30;;;;;;;;;;5039867;28;20270;-77
2022/06/25 05:43:03;;;;;;;23.40;21.40;;;;;;;;;;5011698;28;20231;-77
2022/06/25 05:45:31;;;;;;;21.67;19.88;;;;;;;;;;4992507;28;20220;-76
2022/06/25 05:47:56;;;;;;;22.80;20.85;;;;;;;;;;5010285;28;20251;-76
2022/06/25 05:50:22;;;;;;;22.35;20.55;;;;;;;;;;5018701;28;20678;-78
2022/06/25 05:52:50;;;;;;;22.60;20.67;;;;;;;;;;5007920;28;20643;-77
2022/06/25 05:55:21;;;;;;;23.02;21.20;;;;;;;;;;5008440;28;20224;-77
2022/06/25 05:57:51;;;;;;;22.83;20.92;;;;;;;;;;5017809;28;20247;-77
2022/06/25 06:00:17;;;;;;;23.25;21.38;;;;;;;;;;5008158;28;20228;-78
2022/06/25 06:02:47;;;;;;;23.33;21.35;;;;;;;;;;5007525;28;20251;-78
2022/06/25 06:05:13;;;;;;;22.95;21.05;;;;;;;;;;5020933;28;20712;-76
2022/06/25 06:07:38;;;;;;;22.30;20.38;;;;;;;;;;5035373;28;20224;-77
2022/06/25 06:10:07;;;;;;;21.75;19.90;;;;;;;;;;5018832;28;20247;-77
2022/06/25 06:12:35;;;;;;;20.73;19.02;;;;;;;;;;5014431;28;20273;-77
2022/06/25 06:15:01;;;;;;;21.05;19.25;;;;;;;;;;5032196;28;20830;-76
2022/06/25 06:17:26;;;;;;;21.90;19.80;;;;;;;;;;5031694;28;20216;-77
2022/06/25 06:19:54;;;;;;;20.45;18.70;;;;;;;;;;5007739;28;20588;-78
2022/06/25 06:22:19;;;;;;;19.55;17.85;;;;;;;;;;5004994;28;20231;-78
2022/06/25 06:24:47;;;;;;;19.77;17.90;;;;;;;;;;5016943;28;20224;-75
2022/06/25 06:27:15;;;;;;;19.30;17.50;;;;;;;;;;5016812;28;20224;-75
2022/06/25 06:29:48;;;;;;;16.75;15.23;;;;;;;;;;5036259;28;20761;-76
2022/06/25 06:32:18;;;;;;;16.42;14.93;;;;;;;;;;5015982;28;20212;-75
2022/06/25 06:34:44;;;;;;;15.88;14.57;;;;;;;;;;5015841;28;20208;-75
2022/06/25 06:37:09;;;;;;;15.38;14.07;;;;;;;;;;5008869;28;20298;-76
2022/06/25 06:39:35;;;;;;;15.20;13.80;;;;;;;;;;5028143;28;20234;-76
2022/06/25 06:42:00;;;;;;;13.88;12.57;;;;;;;;;;5006151;28;20740;-76
2022/06/25 06:44:29;;;;;;;13.65;12.55;;;;;;;;;;5001189;28;20254;-76
2022/06/25 06:46:55;;;;;;;13.57;12.48;;;;;;;;;;5031785;28;20234;-76
2022/06/25 06:49:25;;;;;;;11.55;10.52;;;;;;;;;;5013815;28;20220;-75
2022/06/25 06:51:51;;;;;;;13.15;12.00;;;;;;;;;;5019632;28;20224;-78
2022/06/25 06:54:16;;;;;;;11.60;10.70;;;;;;;;;;5018329;28;20256;-77
2022/06/25 06:56:42;;;;;;;10.60;9.80;;;;;;;;;;5019134;28;20216;-76
2022/06/25 06:59:09;;;;;;;11.25;10.35;;;;;;;;;;5007019;28;20231;-77
2022/06/25 07:01:37;;;;;;;11.77;10.77;;;;;;;;;;5005716;28;20221;-76
2022/06/25 07:04:05;;;;;;;11.77;10.88;;;;;;;;;;5014879;28;20224;-76
2022/06/25 07:06:33;;;;;;;12.52;11.38;;;;;;;;;;5022159;28;20224;-76
2022/06/25 07:08:59;;;;;;;12.80;11.70;;;;;;;;;;5036031;28;20231;-76
2022/06/25 07:11:30;;;;;;;11.32;10.32;;;;;;;;;;5019677;28;20315;-75
2022/06/25 07:13:58;;;;;;;11.23;10.27;;;;;;;;;;5011749;28;20212;-75
2022/06/25 07:16:29;;;;;;;10.35;9.48;;;;;;;;;;5022903;28;20566;-76
2022/06/25 07:19:00;;;;;;;10.13;9.13;;;;;;;;;;5026818;28;20230;-74
2022/06/25 07:21:26;;;;;;;10.43;9.43;;;;;;;;;;5006684;28;20220;-76
2022/06/25 07:23:51;;;;;;;11.52;10.63;;;;;;;;;;5012469;28;20216;-77
2022/06/25 07:26:20;;;;;;;12.77;11.68;;;;;;;;;;5035232;28;20235;-76
2022/06/25 07:28:46;;;;;;;11.73;10.68;;;;;;;;;;5015967;28;20277;-76
2022/06/25 07:31:11;;;;;;;12.38;11.25;;;;;;;;;;5003177;28;20834;-76
2022/06/25 07:33:39;;;;;;;11.43;10.52;;;;;;;;;;4997088;28;20227;-78
2022/06/25 07:36:08;;;;;;;11.90;10.90;;;;;;;;;;5034990;28;21000;-75
2022/06/25 07:38:37;;;;;;;12.90;11.70;;;;;;;;;;5021162;28;20749;-76
2022/06/25 07:41:03;;;;;;;10.63;9.70;;;;;;;;;;5025287;28;20305;-77
2022/06/25 07:43:29;;;;;;;11.35;10.25;;;;;;;;;;5021375;28;20256;-79
2022/06/25 07:45:55;;;;;;;10.85;9.88;;;;;;;;;;5036192;28;20260;-78
2022/06/25 07:48:27;;;;;;;10.20;9.30;;;;;;;;;;5039133;28;20771;-80
2022/06/25 07:53:41;;;;;;;8.52;7.50;;;;;;;;;;5011541;28;20701;-76
2022/06/25 07:56:09;;;;;;;7.97;7.18;;;;;;;;;;5028163;28;20223;-77
2022/06/25 07:58:35;;;;;;;8.13;7.35;;;;;;;;;;5036553;28;20247;-78
2022/06/25 08:01:01;;;;;;;10.50;8.80;;;;;;;;;;4998999;28;20225;-77
2022/06/25 08:03:27;;;;;;;8.68;7.97;;;;;;;;;;5022915;28;20231;-77
2022/06/25 08:05:53;;;;;;;7.53;6.82;;;;;;;;;;5010920;28;20219;-77
2022/06/25 08:08:21;;;;;;;7.32;6.60;;;;;;;;;;5023147;28;20259;-77
2022/06/25 08:10:49;;;;;;;7.20;6.60;;;;;;;;;;5021869;28;20236;-75
2022/06/25 08:13:17;;;;;;;7.45;6.82;;;;;;;;;;5003271;28;21019;-74
2022/06/25 08:15:44;;;;;;;8.77;7.97;;;;;;;;;;5020171;28;20232;-77
2022/06/25 08:18:10;;;;;;;8.52;7.78;;;;;;;;;;5005619;28;20572;-77
2022/06/25 08:20:35;;;;;;;7.93;7.05;;;;;;;;;;5001760;28;20233;-77
2022/06/25 08:23:01;;;;;;;10.30;9.40;;;;;;;;;;5007878;28;20557;-73
2022/06/25 08:25:29;;;;;;;7.28;6.55;;;;;;;;;;5019482;28;20212;-74
2022/06/25 08:27:54;;;;;;;7.03;5.82;;;;;;;;;;5016621;28;20224;-77
2022/06/25 08:30:23;;;;;;;5.20;4.68;;;;;;;;;;5033137;28;20228;-74
2022/06/25 08:32:51;;;;;;;4.55;4.15;;;;;;;;;;5030847;28;20253;-74
2022/06/25 08:35:16;;;;;;;4.70;4.30;;;;;;;;;;5029848;28;20231;-75
2022/06/25 08:37:46;;;;;;;4.82;4.45;;;;;;;;;;4992198;28;20764;-73
2022/06/25 08:40:12;;;;;;;4.78;4.38;;;;;;;;;;5010449;28;20243;-74
2022/06/25 08:42:42;;;;;;;4.90;4.50;;;;;;;;;;5006898;28;20304;-77
2022/06/25 08:45:08;;;;;;;5.10;4.03;;;;;;;;;;5021436;28;20267;-75
2022/06/25 08:47:34;;;;;;;4.43;3.63;;;;;;;;;;5009759;28;20247;-76
2022/06/25 08:50:00;;;;;;;2.90;2.70;;;;;;;;;;5005789;28;20224;-75
2022/06/25 08:52:28;;;;;;;4.05;3.20;;;;;;;;;;5017533;28;20270;-75
2022/06/25 08:54:54;;;;;;;4.07;3.50;;;;;;;;;;4992960;28;20223;-75
2022/06/25 08:57:20;;;;;;;3.60;3.30;;;;;;;;;;5008988;28;20212;-77
2022/06/25 08:59:46;;;;;;;4.25;3.13;;;;;;;;;;5010235;28;20935;-74
2022/06/25 09:02:11;;;;;;;2.47;2.15;;;;;;;;;;5006168;28;20294;-74
2022/06/25 09:04:44;;;;;;;3.65;2.47;;;;;;;;;;5007530;28;20714;-76
2022/06/25 09:07:15;;;;;;;2.00;1.70;;;;;;;;;;4994724;28;20298;-76
2022/06/25 09:09:47;;;;;;;1.88;1.70;;;;;;;;;;5009298;28;20700;-77
2022/06/25 09:12:16;;;;;;;3.00;2.35;;;;;;;;;;5001423;28;20224;-78
2022/06/25 09:14:48;;;;;;;1.83;1.70;;;;;;;;;;5022129;28;20219;-77
2022/06/25 09:17:16;;;;;;;1.90;1.80;;;;;;;;;;5009755;28;20225;-76
2022/06/25 09:19:47;;;;;;;2.10;1.90;;;;;;;;;;5008177;28;20217;-76
2022/06/25 09:22:14;;;;;;;3.38;2.00;;;;;;;;;;5006202;28;20236;-74
2022/06/25 09:24:53;;;;;;;2.80;1.80;;;;;;;;;;5019515;28;20239;-75
2022/06/25 09:27:42;;;;;;;2.42;1.60;;;;;;;;;;5015786;28;20316;-75
2022/06/25 09:30:11;;;;;;;2.10;1.50;;;;;;;;;;5008003;28;20259;-75
2022/06/25 09:32:45;;;;;;;1.88;1.40;;;;;;;;;;5016569;28;20247;-73
2022/06/25 09:35:12;;;;;;;1.70;1.60;;;;;;;;;;5017121;28;20251;-74
2022/06/25 09:37:38;;;;;;;2.30;1.45;;;;;;;;;;5005391;28;20236;-72
2022/06/25 09:40:04;;;;;;;2.25;1.27;;;;;;;;;;5005860;28;20224;-74
2022/06/25 09:42:34;;;;;;;2.05;1.30;;;;;;;;;;5014548;28;20227;-75
2022/06/25 09:45:05;;;;;;;4.35;1.50;;;;;;;;;;5007994;28;20400;-74
2022/06/25 09:47:38;;;;;;;1.25;1.15;;;;;;;;;;4986127;28;20303;-77
2022/06/25 09:50:08;;;;;;;1.55;1.33;;;;;;;;;;5006888;28;20269;-73
2022/06/25 09:52:33;;;;;;;1.40;1.30;;;;;;;;;;5008197;28;20709;-74
2022/06/25 09:54:59;;;;;;;2.20;1.30;;;;;;;;;;5008977;28;20215;-73
2022/06/25 09:57:28;;;;;;;1.25;1.10;;;;;;;;;;5007553;28;20226;-73
2022/06/25 09:59:56;;;;;;;1.17;1.08;;;;;;;;;;5020047;28;20228;-72
2022/06/25 10:02:24;;;;;;;3.33;1.10;;;;;;;;;;5007028;28;20231;-75
2022/06/25 10:04:49;;;;;;;4.85;1.65;;;;;;;;;;5009603;28;20236;-73
2022/06/25 10:07:15;;;;;;;3.08;2.85;;;;;;;;;;5005775;28;20590;-75
2022/06/25 10:09:43;;;;;;;2.17;1.25;;;;;;;;;;5008197;28;20232;-76
2022/06/25 10:12:09;;;;;;;0.95;0.93;;;;;;;;;;5022467;28;20316;-75
2022/06/25 10:14:36;;;;;;;1.20;1.02;;;;;;;;;;5017948;28;20239;-74
2022/06/25 10:17:05;;;;;;;1.73;1.23;;;;;;;;;;5004590;28;20232;-74
2022/06/25 10:19:35;;;;;;;2.55;1.17;;;;;;;;;;5033369;28;20342;-75
2022/06/25 10:22:01;;;;;;;1.83;1.10;;;;;;;;;;4997763;28;20209;-74
2022/06/25 10:24:29;;;;;;;2.55;1.10;;;;;;;;;;5004032;28;20247;-76
2022/06/25 10:27:03;;;;;;;1.55;0.90;;;;;;;;;;4999297;28;20228;-76
2022/06/25 10:29:32;;;;;;;0.90;0.90;;;;;;;;;;4983097;28;20220;-76
2022/06/25 10:32:14;;;;;;;0.95;0.95;;;;;;;;;;5008951;28;20220;-75
2022/06/25 10:34:54;;;;;;;1.20;1.10;;;;;;;;;;5033747;28;20231;-77
2022/06/25 10:37:22;;;;;;;1.80;1.02;;;;;;;;;;5022534;28;20299;-77
2022/06/25 10:39:59;;;;;;;1.42;1.00;;;;;;;;;;5007984;28;20267;-77
2022/06/25 10:45:13;;;;;;;1.30;1.05;;;;;;;;;;5011930;28;20229;-76
2022/06/25 10:47:41;;;;;;;1.00;1.00;;;;;;;;;;5012895;28;20225;-76
2022/06/25 10:50:22;;;;;;;1.08;1.02;;;;;;;;;;5008897;28;20231;-74
2022/06/25 10:53:06;;;;;;;1.27;1.00;;;;;;;;;;5019615;28;20243;-75
2022/06/25 10:55:46;;;;;;;1.10;1.00;;;;;;;;;;5018134;28;20725;-74
2022/06/25 10:58:22;;;;;;;9.23;2.20;;;;;;;;;;5018819;28;20608;-77
2022/06/25 11:00:53;;;;;;;1.58;0.88;;;;;;;;;;5022830;28;20223;-75
2022/06/25 11:03:28;;;;;;;0.80;0.80;;;;;;;;;;5012997;28;20227;-75
2022/06/25 11:05:56;;;;;;;2.92;1.05;;;;;;;;;;5024008;28;20230;-75
2022/06/25 11:08:23;;;;;;;0.98;0.95;;;;;;;;;;5018371;28;20232;-75
2022/06/25 11:10:54;;;;;;;1.77;0.90;;;;;;;;;;5020492;28;20220;-76
2022/06/25 11:13:24;;;;;;;0.80;0.80;;;;;;;;;;5007982;28;20227;-74
2022/06/25 11:15:49;;;;;;;0.85;0.77;;;;;;;;;;5019507;28;20319;-76
2022/06/25 11:18:17;;;;;;;1.10;0.90;;;;;;;;;;5012271;28;20224;-75
2022/06/25 11:20:46;;;;;;;3.65;1.08;;;;;;;;;;5023435;28;20224;-75
2022/06/25 11:23:15;;;;;;;1.00;0.80;;;;;;;;;;5026311;28;20224;-76
2022/06/25 11:28:47;;;;;;;1.05;0.95;;;;;;;;;;5025386;28;20239;-76
2022/06/25 11:31:22;;;;;;;1.75;0.80;;;;;;;;;;5029085;28;20620;-74
2022/06/25 11:33:49;;;;;;;0.68;0.68;;;;;;;;;;5012689;28;20704;-75
2022/06/25 11:36:15;;;;;;;1.92;1.00;;;;;;;;;;5026793;28;20413;-75
2022/06/25 11:38:42;;;;;;;0.90;0.90;;;;;;;;;;5021583;28;20235;-76
2022/06/25 11:41:23;;;;;;;1.17;0.93;;;;;;;;;;5016327;28;20241;-74
2022/06/25 11:43:51;;;;;;;1.25;1.00;;;;;;;;;;5023515;28;20339;-75
2022/06/25 11:46:19;;;;;;;2.15;0.88;;;;;;;;;;5028719;28;20224;-74
2022/06/25 11:48:47;;;;;;;1.98;0.80;;;;;;;;;;5022346;28;20303;-75
2022/06/25 11:51:13;;;;;;;1.08;0.98;;;;;;;;;;5020792;28;20323;-76
2022/06/25 11:53:41;;;;;;;1.40;0.90;;;;;;;;;;5012708;28;20599;-73
2022/06/25 11:56:09;;;;;;;1.25;0.95;;;;;;;;;;5021336;28;20216;-75
2022/06/25 11:58:35;;;;;;;1.02;0.80;;;;;;;;;;5011752;28;20866;-74
2022/06/25 12:01:03;;;;;;;1.48;0.90;;;;;;;;;;5024031;28;20542;-76
2022/06/25 12:03:31;;;;;;;1.83;0.90;;;;;;;;;;5026801;28;20607;-75
2022/06/25 12:05:58;;;;;;;1.75;1.05;;;;;;;;;;5040830;28;20228;-77
2022/06/25 12:08:26;;;;;;;1.35;0.80;;;;;;;;;;5007566;28;20682;-74
2022/06/25 12:10:54;;;;;;;1.85;0.80;;;;;;;;;;5011723;28;20221;-76
2022/06/25 12:13:25;;;;;;;2.42;1.10;;;;;;;;;;4994065;28;20228;-77
2022/06/25 12:15:58;;;;;;;1.15;0.90;;;;;;;;;;5014606;28;20290;-75
2022/06/25 12:18:35;;;;;;;1.08;1.02;;;;;;;;;;5012497;28;20222;-74
2022/06/25 12:21:02;;;;;;;1.80;0.90;;;;;;;;;;5014802;28;20231;-78
2022/06/25 12:23:27;;;;;;;1.10;0.82;;;;;;;;;;5010988;28;20231;-77
2022/06/25 12:25:55;;;;;;;2.70;1.02;;;;;;;;;;5011267;28;20216;-77
2022/06/25 12:28:35;;;;;;;1.35;1.10;;;;;;;;;;5034559;28;20227;-73
2022/06/25 12:31:09;;;;;;;1.73;1.20;;;;;;;;;;5018231;28;20224;-74
2022/06/25 12:33:35;;;;;;;1.15;1.05;;;;;;;;;;5010286;28;20756;-76
2022/06/25 12:36:00;;;;;;;2.70;1.00;;;;;;;;;;5034176;28;20434;-76
2022/06/25 12:38:26;;;;;;;1.30;1.20;;;;;;;;;;5011485;28;20224;-74
2022/06/25 12:40:51;;;;;;;2.35;1.10;;;;;;;;;;5011853;28;20239;-73
2022/06/25 12:43:17;;;;;;;1.27;0.90;;;;;;;;;;5013274;28;20223;-75
2022/06/25 12:45:47;;;;;;;1.98;1.00;;;;;;;;;;5011032;28;20231;-76
2022/06/25 12:48:41;;;;;;;2.05;1.05;;;;;;;;;;5036989;28;20228;-76
2022/06/25 12:51:11;;;;;;;3.35;1.10;;;;;;;;;;5020414;28;20227;-79
2022/06/25 12:53:37;;;;;;;1.13;1.02;;;;;;;;;;5012311;28;20238;-76
2022/06/25 12:56:05;;;;;;;2.53;0.95;;;;;;;;;;5010133;28;20208;-76
2022/06/25 12:58:38;;;;;;;1.08;0.88;;;;;;;;;;5021614;28;20242;-75
2022/06/25 13:01:20;;;;;;;1.75;1.10;;;;;;;;;;5009401;28;20300;-75
2022/06/25 13:03:50;;;;;;;1.00;0.90;;;;;;;;;;5033782;28;20275;-74
2022/06/25 13:06:16;;;;;;;1.10;1.00;;;;;;;;;;5008970;28;20706;-75
2022/06/25 13:08:44;;;;;;;0.90;0.90;;;;;;;;;;5023756;28;20235;-72
2022/06/25 13:11:19;;;;;;;0.95;0.85;;;;;;;;;;5020551;28;20606;-76
2022/06/25 13:13:47;;;;;;;1.05;0.85;;;;;;;;;;4993129;28;20215;-77
2022/06/25 13:16:13;;;;;;;1.02;0.93;;;;;;;;;;5009494;28;20344;-75
2022/06/25 13:18:40;;;;;;;1.85;0.95;;;;;;;;;;5020762;28;20244;-77
2022/06/25 13:21:05;;;;;;;2.47;0.98;;;;;;;;;;5008171;28;20277;-77
2022/06/25 13:23:36;;;;;;;2.25;0.80;;;;;;;;;;5018540;28;20231;-76
2022/06/25 13:26:03;;;;;;;1.52;0.80;;;;;;;;;;5007862;28;20220;-75
2022/06/25 13:28:30;;;;;;;1.17;0.90;;;;;;;;;;5020040;28;20636;-78
2022/06/25 13:30:58;;;;;;;1.17;1.00;;;;;;;;;;5007189;28;20221;-80
2022/06/25 13:33:23;;;;;;;1.08;0.80;;;;;;;;;;5004040;28;20220;-78
2022/06/25 13:35:49;;;;;;;1.20;1.02;;;;;;;;;;5007920;28;20221;-78
2022/06/25 13:38:17;;;;;;;2.05;0.95;;;;;;;;;;5027736;28;20242;-77
2022/06/25 13:40:43;;;;;;;1.75;0.93;;;;;;;;;;5011584;28;20224;-76
2022/06/25 13:43:09;;;;;;;4.00;1.15;;;;;;;;;;5019570;28;20227;-77
2022/06/25 13:45:39;;;;;;;1.25;1.00;;;;;;;;;;5034463;28;20224;-77
2022/06/25 13:48:05;;;;;;;1.92;1.13;;;;;;;;;;5032941;28;20220;-78
2022/06/25 13:50:31;;;;;;;1.63;0.85;;;;;;;;;;5011268;28;20227;-79
2022/06/25 13:52:57;;;;;;;2.00;1.00;;;;;;;;;;5012927;28;20236;-79
2022/06/25 13:55:22;;;;;;;1.10;0.93;;;;;;;;;;5022462;28;20220;-78
2022/06/25 13:57:50;;;;;;;2.22;0.90;;;;;;;;;;5021844;28;20243;-79
2022/06/25 14:00:17;;;;;;;1.58;1.00;;;;;;;;;;5009860;28;20235;-77
2022/06/25 14:02:45;;;;;;;0.80;0.80;;;;;;;;;;5005311;28;20224;-77
2022/06/25 14:05:11;;;;;;;1.25;0.90;;;;;;;;;;5011315;28;20592;-77
2022/06/25 14:07:37;;;;;;;1.75;1.15;;;;;;;;;;5020701;28;20248;-80
2022/06/25 14:10:03;;;;;;;1.90;1.00;;;;;;;;;;5005738;28;20219;-77
2022/06/25 14:12:30;;;;;;;1.52;0.93;;;;;;;;;;5016482;28;20306;-74
2022/06/25 14:15:01;;;;;;;1.33;1.00;;;;;;;;;;5006740;28;20231;-76
2022/06/25 14:17:29;;;;;;;1.15;1.05;;;;;;;;;;5007328;28;20220;-77
2022/06/25 14:20:01;;;;;;;1.85;1.00;;;;;;;;;;5031322;28;20264;-76
2022/06/25 14:22:27;;;;;;;1.10;0.90;;;;;;;;;;5016870;28;20228;-74
2022/06/25 14:27:36;;;;;;;1.65;0.90;;;;;;;;;;5033257;28;20242;-77
2022/06/25 14:30:03;;;;;;;2.08;1.10;;;;;;;;;;5005746;28;20228;-74
2022/06/25 14:32:29;;;;;;;1.05;0.90;;;;;;;;;;5002266;28;20223;-79
2022/06/25 14:34:57;;;;;;;1.00;1.00;;;;;;;;;;5001440;28;20214;-75
2022/06/25 14:42:52;;;;;;;1.30;1.20;;;;;;;;;;5002859;28;20234;-75
2022/06/25 14:45:18;;;;;;;2.75;1.10;;;;;;;;;;5008311;28;20220;-75
2022/06/25 14:47:43;;;;;;;1.63;0.98;;;;;;;;;;5017321;28;20255;-75
2022/06/25 14:50:11;;;;;;;1.75;1.02;;;;;;;;;;5020863;28;20596;-74
2022/06/25 14:52:37;;;;;;;0.85;0.82;;;;;;;;;;5021143;28;21074;-75
2022/06/25 14:55:04;;;;;;;1.00;0.90;;;;;;;;;;5010884;28;20275;-75
2022/06/25 14:57:29;;;;;;;2.78;1.20;;;;;;;;;;5025961;28;20220;-76
2022/06/25 14:59:57;;;;;;;1.00;0.90;;;;;;;;;;5022990;28;20286;-74
2022/06/25 15:02:23;;;;;;;1.00;0.90;;;;;;;;;;5042508;28;20220;-76
2022/06/25 15:04:51;;;;;;;1.58;0.90;;;;;;;;;;5040562;28;20270;-74
2022/06/25 15:07:19;;;;;;;2.25;0.82;;;;;;;;;;5006402;28;20228;-74
2022/06/25 15:09:44;;;;;;;1.70;1.00;;;;;;;;;;5024364;28;20215;-75